createdAt,value
2019-02-09T00:02:09.540Z,62.00
2019-02-09T00:04:40.429Z,62.10
2019-02-09T00:07:11.575Z,60.47
2019-02-09T00:09:42.956Z,59.80
2019-02-09T00:12:13.634Z,62.63
2019-02-09T00:14:44.857Z,64.20
2019-02-09T00:17:15.659Z,62.03
2019-02-09T00:19:46.645Z,63.97
2019-02-09T00:22:17.870Z,63.97
2019-02-09T00:24:48.502Z,61.57
2019-02-09T00:27:19.493Z,63.47
2019-02-09T00:29:50.229Z,61.47
2019-02-09T00:32:20.692Z,60.97
2019-02-09T00:34:52.114Z,61.60
2019-02-09T00:37:22.627Z,60.97
2019-02-09T00:39:53.540Z,61.53
2019-02-09T00:42:24.712Z,58.60
2019-02-09T00:44:57.264Z,63.33
2019-02-09T00:47:29.675Z,62.23
2019-02-09T00:50:00.771Z,59.83
2019-02-09T00:52:34.391Z,61.80
2019-02-09T00:55:06.551Z,60.77
2019-02-09T00:57:37.480Z,62.07
2019-02-09T01:00:13.957Z,60.67
2019-02-09T01:02:46.808Z,56.53
2019-02-09T01:05:21.073Z,57.87
2019-02-09T01:07:52.754Z,58.37
2019-02-09T01:10:24.418Z,57.53
2019-02-09T01:12:54.790Z,55.80
2019-02-09T01:15:27.904Z,55.17
2019-02-09T01:17:58.848Z,55.43
2019-02-09T01:20:30.398Z,55.20
2019-02-09T01:23:01.182Z,58.33
2019-02-09T01:25:31.879Z,57.10
2019-02-09T01:28:02.832Z,56.63
2019-02-09T01:30:33.968Z,58.27
2019-02-09T01:33:05.048Z,55.43
2019-02-09T01:35:35.930Z,56.00
2019-02-09T01:38:06.925Z,57.10
2019-02-09T01:40:37.685Z,56.03
2019-02-09T01:43:08.973Z,56.73
2019-02-09T01:45:41.173Z,56.50
2019-02-09T01:48:12.994Z,57.87
2019-02-09T01:50:43.955Z,58.77
2019-02-09T01:53:16.060Z,56.47
2019-02-09T01:55:46.960Z,56.87
2019-02-09T01:58:19.942Z,54.13
2019-02-09T02:00:50.992Z,57.90
2019-02-09T02:03:22.124Z,57.90
2019-02-09T02:05:52.939Z,55.20
2019-02-09T02:08:24.059Z,56.60
2019-02-09T02:10:55.062Z,54.87
2019-02-09T02:13:26.286Z,54.47
2019-02-09T02:15:57.125Z,54.57
2019-02-09T02:18:28.178Z,52.50
2019-02-09T02:21:01.057Z,54.37
2019-02-09T02:23:32.924Z,52.50
2019-02-09T02:26:03.928Z,53.10
2019-02-09T02:28:34.783Z,49.00
2019-02-09T02:31:05.207Z,48.30
2019-02-09T02:33:36.221Z,51.07
2019-02-09T02:36:07.233Z,48.23
2019-02-09T02:38:37.744Z,48.00
2019-02-09T02:41:09.655Z,47.93
2019-02-09T02:43:40.582Z,45.80
2019-02-09T02:46:11.866Z,45.37
2019-02-09T02:48:42.762Z,46.37
2019-02-09T02:51:13.335Z,45.70
2019-02-09T02:53:44.299Z,48.80
2019-02-09T02:56:15.316Z,48.20
2019-02-09T02:58:46.690Z,46.40
2019-02-09T03:01:17.723Z,48.00
2019-02-09T03:03:48.482Z,45.90
2019-02-09T03:06:19.308Z,45.63
2019-02-09T03:08:50.242Z,43.77
2019-02-09T03:11:21.225Z,45.13
2019-02-09T03:13:52.138Z,43.63
2019-02-09T03:16:23.143Z,42.67
2019-02-09T03:18:54.160Z,43.80
2019-02-09T03:21:25.112Z,44.00
2019-02-09T03:23:55.550Z,44.43
2019-02-09T03:26:26.390Z,45.00
2019-02-09T03:28:57.354Z,45.37
2019-02-09T03:31:28.483Z,45.60
2019-02-09T03:33:59.461Z,45.23
2019-02-09T03:36:30.487Z,46.57
2019-02-09T03:39:01.425Z,41.67
2019-02-09T03:41:32.616Z,45.30
2019-02-09T03:44:03.470Z,43.03
2019-02-09T03:46:34.413Z,42.43
2019-02-09T03:49:05.792Z,44.90
2019-02-09T03:51:36.575Z,44.63
2019-02-09T03:54:07.470Z,41.23
2019-02-09T03:56:37.941Z,43.60
2019-02-09T03:59:08.600Z,43.13
2019-02-09T04:01:40.359Z,43.50
2019-02-09T04:04:11.226Z,41.80
2019-02-09T04:06:42.152Z,41.17
2019-02-09T04:09:12.549Z,43.50
2019-02-09T04:11:43.982Z,40.00
2019-02-09T04:14:14.695Z,41.73
2019-02-09T04:16:45.734Z,41.70
2019-02-09T04:19:16.690Z,40.83
2019-02-09T04:21:47.646Z,41.77
2019-02-09T04:24:18.454Z,43.50
2019-02-09T04:26:49.432Z,42.07
2019-02-09T04:29:20.287Z,41.63
2019-02-09T04:31:50.674Z,42.63
2019-02-09T04:34:21.791Z,41.50
2019-02-09T04:36:53.134Z,38.60
2019-02-09T04:39:23.731Z,42.43
2019-02-09T04:41:54.649Z,40.67
2019-02-09T04:44:25.985Z,40.23
2019-02-09T04:46:56.754Z,39.73
2019-02-09T04:49:27.732Z,39.87
2019-02-09T04:51:58.829Z,39.23
2019-02-09T04:54:29.814Z,39.97
2019-02-09T04:57:00.924Z,40.60
2019-02-09T04:59:33.002Z,40.77
2019-02-09T05:02:05.864Z,38.17
2019-02-09T05:04:36.809Z,40.70
2019-02-09T05:07:07.836Z,38.30
2019-02-09T05:09:38.222Z,37.63
2019-02-09T05:12:09.870Z,38.83
2019-02-09T05:14:40.993Z,37.67
2019-02-09T05:17:13.948Z,38.53
2019-02-09T05:19:44.793Z,37.47
2019-02-09T05:22:16.963Z,37.87
2019-02-09T05:24:49.859Z,38.13
2019-02-09T05:27:22.049Z,39.23
2019-02-09T05:29:53.942Z,38.10
2019-02-09T05:32:24.942Z,38.13
2019-02-09T05:34:56.001Z,39.03
2019-02-09T05:37:28.027Z,38.53
2019-02-09T05:40:00.909Z,37.67
2019-02-09T05:42:31.308Z,38.50
2019-02-09T05:45:03.085Z,38.60
2019-02-09T05:47:34.085Z,37.40
2019-02-09T05:50:05.898Z,40.77
2019-02-09T05:52:37.992Z,40.80
2019-02-09T05:55:10.167Z,40.63
2019-02-09T05:57:40.999Z,41.03
2019-02-09T06:00:32.138Z,42.40
2019-02-09T06:03:04.080Z,41.40
2019-02-09T06:05:35.293Z,42.67
2019-02-09T06:08:06.223Z,41.40
2019-02-09T06:10:37.889Z,42.40
2019-02-09T06:13:08.276Z,41.30
2019-02-09T06:15:38.668Z,42.10
2019-02-09T06:18:09.100Z,42.07
2019-02-09T06:20:41.279Z,43.20
2019-02-09T06:23:14.112Z,43.83
2019-02-09T06:25:47.218Z,42.00
2019-02-09T06:28:19.213Z,40.97
2019-02-09T06:30:50.257Z,42.33
2019-02-09T06:33:21.177Z,43.20
2019-02-09T06:35:53.400Z,42.27
2019-02-09T06:38:25.312Z,44.07
2019-02-09T06:40:57.287Z,44.40
2019-02-09T06:43:28.198Z,43.63
2019-02-09T06:45:59.316Z,44.27
2019-02-09T06:48:30.748Z,44.47
2019-02-09T06:51:02.264Z,44.30
2019-02-09T06:53:32.675Z,43.83
2019-02-09T06:56:03.334Z,43.63
2019-02-09T06:58:34.314Z,46.80
2019-02-09T07:01:05.569Z,44.17
2019-02-09T07:03:36.187Z,44.57
2019-02-09T07:06:07.316Z,43.50
2019-02-09T07:08:37.969Z,45.63
2019-02-09T07:11:08.484Z,44.00
2019-02-09T07:13:38.861Z,44.13
2019-02-09T07:16:11.257Z,43.43
2019-02-09T07:18:41.720Z,44.10
2019-02-09T07:21:13.343Z,42.87
2019-02-09T07:23:44.291Z,41.73
2019-02-09T07:26:15.311Z,42.37
2019-02-09T07:28:46.281Z,45.53
2019-02-09T07:31:18.750Z,43.87
2019-02-09T07:33:51.624Z,42.57
2019-02-09T07:36:24.642Z,42.70
2019-02-09T07:38:55.507Z,42.30
2019-02-09T07:41:26.486Z,42.50
2019-02-09T07:43:57.666Z,43.53
2019-02-09T07:46:28.578Z,43.07
2019-02-09T07:48:59.439Z,43.77
2019-02-09T07:51:30.652Z,43.80
2019-02-09T07:54:01.554Z,43.57
2019-02-09T07:56:32.524Z,42.60
2019-02-09T07:59:04.825Z,42.33
2019-02-09T08:01:37.725Z,41.30
2019-02-09T08:04:08.801Z,43.40
2019-02-09T08:06:41.544Z,41.80
2019-02-09T08:09:13.788Z,44.73
2019-02-09T08:11:44.564Z,45.00
2019-02-09T08:14:15.729Z,47.40
2019-02-09T08:16:47.608Z,46.57
2019-02-09T08:19:20.674Z,45.83
2019-02-09T08:21:51.792Z,44.70
2019-02-09T08:24:24.326Z,48.43
2019-02-09T08:26:56.654Z,52.27
2019-02-09T08:29:27.831Z,49.00
2019-02-09T08:31:58.753Z,43.90
2019-02-09T08:34:29.807Z,42.97
2019-02-09T08:37:00.758Z,42.33
2019-02-09T08:39:31.785Z,44.07
2019-02-09T08:42:03.718Z,42.40
2019-02-09T08:44:35.706Z,42.60
2019-02-09T08:47:07.950Z,44.07
2019-02-09T08:49:38.341Z,41.03
2019-02-09T08:52:09.760Z,39.80
2019-02-09T08:54:41.900Z,43.90
2019-02-09T08:57:14.902Z,43.03
2019-02-09T08:59:48.008Z,41.70
2019-02-09T09:02:20.830Z,40.37
2019-02-09T09:04:53.418Z,41.00
2019-02-09T09:07:24.002Z,42.50
2019-02-09T09:09:55.260Z,41.60
2019-02-09T09:12:25.965Z,39.97
2019-02-09T09:14:57.086Z,41.27
2019-02-09T09:17:28.205Z,42.77
2019-02-09T09:19:58.990Z,41.90
2019-02-09T09:22:30.035Z,42.87
2019-02-09T09:25:01.098Z,43.27
2019-02-09T09:27:32.150Z,42.00
2019-02-09T09:30:03.218Z,39.90
2019-02-09T09:32:34.072Z,41.70
2019-02-09T09:35:05.321Z,43.13
2019-02-09T09:37:36.053Z,43.30
2019-02-09T09:40:09.497Z,41.40
2019-02-09T09:42:41.938Z,44.20
2019-02-09T09:45:17.288Z,45.47
2019-02-09T09:47:48.115Z,43.80
2019-02-09T09:50:19.829Z,44.30
2019-02-09T09:52:52.114Z,43.93
2019-02-09T09:55:23.133Z,45.27
2019-02-09T09:57:53.494Z,44.40
2019-02-09T10:00:26.300Z,44.07
2019-02-09T10:02:57.847Z,46.93
2019-02-09T10:05:28.215Z,44.63
2019-02-09T10:07:59.237Z,44.70
2019-02-09T10:10:30.173Z,46.10
2019-02-09T10:13:01.297Z,45.90
2019-02-09T10:15:32.275Z,44.87
2019-02-09T10:18:03.288Z,44.20
2019-02-09T10:20:34.235Z,44.03
2019-02-09T10:23:05.279Z,43.73
2019-02-09T10:25:36.646Z,40.70
2019-02-09T10:28:07.347Z,40.43
2019-02-09T10:30:38.384Z,42.17
2019-02-09T10:33:09.408Z,39.37
2019-02-09T10:35:41.328Z,40.40
2019-02-09T10:38:13.760Z,39.93
2019-02-09T10:40:44.498Z,40.33
2019-02-09T10:43:15.434Z,38.93
2019-02-09T10:45:46.847Z,38.60
2019-02-09T10:48:17.419Z,40.40
2019-02-09T10:50:48.897Z,41.13
2019-02-09T10:53:19.322Z,40.77
2019-02-09T10:55:50.459Z,40.50
2019-02-09T10:58:21.387Z,41.70
2019-02-09T11:00:59.177Z,41.43
2019-02-09T11:03:29.536Z,40.43
2019-02-09T11:06:00.357Z,39.67
2019-02-09T11:08:31.551Z,41.60
2019-02-09T11:11:02.654Z,42.27
2019-02-09T11:13:33.374Z,42.57
2019-02-09T11:16:04.454Z,42.47
2019-02-09T11:18:36.393Z,42.73
2019-02-09T11:21:08.416Z,43.50
2019-02-09T11:23:38.869Z,41.40
2019-02-09T11:26:11.571Z,42.17
2019-02-09T11:28:44.522Z,42.80
2019-02-09T11:31:15.534Z,40.20
2019-02-09T11:33:47.451Z,43.30
2019-02-09T11:36:19.596Z,44.77
2019-02-09T11:38:50.969Z,41.20
2019-02-09T11:41:23.226Z,41.27
2019-02-09T11:43:54.044Z,41.23
2019-02-09T11:46:25.754Z,45.77
2019-02-09T11:48:56.150Z,42.53
2019-02-09T11:51:28.790Z,42.77
2019-02-09T11:54:00.748Z,42.50
2019-02-09T11:56:31.649Z,43.47
2019-02-09T11:59:02.583Z,42.83
2019-02-09T12:01:33.628Z,42.97
2019-02-09T12:04:05.025Z,41.50
2019-02-09T12:06:35.630Z,42.30
2019-02-09T12:09:09.472Z,42.67
2019-02-09T12:11:41.771Z,42.80
2019-02-09T12:14:17.288Z,44.83
2019-02-09T12:16:47.732Z,43.33
2019-02-09T12:19:19.829Z,43.70
2019-02-09T12:21:50.887Z,43.03
2019-02-09T12:24:21.832Z,43.90
2019-02-09T12:26:54.827Z,43.40
2019-02-09T12:29:26.447Z,39.97
2019-02-09T12:31:56.899Z,41.90
2019-02-09T12:34:27.916Z,41.90
2019-02-09T12:36:59.189Z,40.43
2019-02-09T12:39:30.225Z,40.00
2019-02-09T12:42:00.956Z,39.63
2019-02-09T12:44:31.983Z,42.10
2019-02-09T12:47:02.900Z,41.70
2019-02-09T12:49:35.519Z,39.90
2019-02-09T12:52:08.068Z,40.77
2019-02-09T12:54:38.522Z,38.23
2019-02-09T12:57:09.875Z,40.97
2019-02-09T12:59:42.411Z,40.93
2019-02-09T13:02:15.074Z,41.80
2019-02-09T13:04:47.934Z,40.03
2019-02-09T13:07:20.132Z,40.50
2019-02-09T13:09:50.622Z,37.10
2019-02-09T13:12:21.116Z,39.57
2019-02-09T13:14:53.796Z,39.77
2019-02-09T13:17:25.099Z,39.53
2019-02-09T13:19:57.115Z,40.33
2019-02-09T13:22:29.234Z,39.43
2019-02-09T13:25:00.101Z,40.03
2019-02-09T13:27:32.997Z,38.83
2019-02-09T13:30:07.447Z,39.03
2019-02-09T13:32:39.284Z,37.83
2019-02-09T13:35:12.344Z,37.40
2019-02-09T13:37:45.027Z,38.13
2019-02-09T13:40:17.575Z,37.33
2019-02-09T13:42:48.089Z,37.23
2019-02-09T13:45:23.449Z,37.37
2019-02-09T13:47:54.101Z,37.30
2019-02-09T13:50:26.847Z,36.80
2019-02-09T13:52:57.230Z,36.17
2019-02-09T13:55:28.277Z,36.37
2019-02-09T13:57:59.205Z,37.90
2019-02-09T14:00:30.380Z,38.40
2019-02-09T14:03:01.331Z,35.57
2019-02-09T14:05:32.481Z,36.50
2019-02-09T14:08:03.350Z,35.67
2019-02-09T14:10:34.234Z,35.70
2019-02-09T14:13:05.377Z,36.33
2019-02-09T14:15:36.363Z,35.40
2019-02-09T14:18:09.106Z,34.40
2019-02-09T14:20:39.550Z,34.30
2019-02-09T14:23:12.372Z,37.90
2019-02-09T14:25:43.369Z,35.37
2019-02-09T14:28:14.271Z,34.57
2019-02-09T14:30:45.458Z,33.73
2019-02-09T14:33:16.343Z,36.67
2019-02-09T14:35:47.421Z,32.40
2019-02-09T14:38:18.521Z,34.33
2019-02-09T14:40:49.458Z,36.90
2019-02-09T14:43:20.356Z,36.20
2019-02-09T14:45:51.490Z,33.50
2019-02-09T14:48:22.405Z,35.67
2019-02-09T14:50:53.379Z,33.47
2019-02-09T14:53:24.430Z,36.40
2019-02-09T14:55:55.551Z,34.97
2019-02-09T14:58:28.518Z,36.80
2019-02-09T15:00:59.518Z,34.87
2019-02-09T15:03:30.949Z,34.03
2019-02-09T15:06:03.427Z,35.83
2019-02-09T15:08:35.458Z,36.17
2019-02-09T15:11:06.491Z,36.30
2019-02-09T15:13:37.592Z,46.60
2019-02-09T15:16:38.806Z,45.87
2019-02-09T15:19:09.569Z,45.97
2019-02-09T15:21:41.578Z,70.83
2019-02-09T15:24:14.326Z,43.23
2019-02-09T15:26:45.524Z,90.97
2019-02-09T15:29:16.623Z,39.80
2019-02-09T15:31:48.542Z,52.90
2019-02-09T15:34:21.625Z,84.97
2019-02-09T15:36:52.554Z,40.80
2019-02-09T15:39:23.690Z,46.47
2019-02-09T15:41:54.955Z,57.90
2019-02-09T15:44:25.796Z,44.77
2019-02-09T15:46:56.748Z,50.97
2019-02-09T15:49:27.966Z,43.23
2019-02-09T15:51:58.745Z,64.03
2019-02-09T15:54:29.615Z,89.23
2019-02-09T15:57:00.667Z,66.63
2019-02-09T15:59:31.553Z,48.10
2019-02-09T16:02:04.276Z,39.30
2019-02-09T16:04:36.790Z,40.30
2019-02-09T16:07:07.770Z,48.13
2019-02-09T16:09:38.706Z,49.00
2019-02-09T16:12:09.700Z,44.33
2019-02-09T16:14:41.790Z,91.00
2019-02-09T16:17:15.056Z,49.00
2019-02-09T16:19:46.233Z,52.27
2019-02-09T16:22:18.831Z,58.90
2019-02-09T16:24:56.083Z,46.10
2019-02-09T16:27:26.928Z,42.50
2019-02-09T16:29:57.892Z,41.47
2019-02-09T16:32:28.783Z,44.17
2019-02-09T16:35:01.447Z,42.47
2019-02-09T16:37:33.889Z,45.83
2019-02-09T16:40:06.533Z,42.73
2019-02-09T16:42:38.863Z,44.20
2019-02-09T16:45:13.617Z,50.53
2019-02-09T16:47:44.938Z,60.60
2019-02-09T16:50:18.713Z,45.07
2019-02-09T16:52:51.166Z,46.03
2019-02-09T16:55:23.022Z,45.27
2019-02-09T16:57:54.004Z,41.00
2019-02-09T17:00:35.907Z,44.20
2019-02-09T17:03:09.140Z,48.13
2019-02-09T17:05:39.667Z,44.90
2019-02-09T17:08:12.994Z,47.23
2019-02-09T17:10:43.951Z,48.53
2019-02-09T17:13:14.872Z,42.40
2019-02-09T17:15:45.883Z,40.20
2019-02-09T17:18:16.717Z,46.27
2019-02-09T17:20:47.740Z,39.53
2019-02-09T17:23:18.216Z,41.10
2019-02-09T17:25:49.702Z,41.27
2019-02-09T17:28:20.814Z,42.03
2019-02-09T17:30:51.955Z,42.00
2019-02-09T17:33:22.946Z,59.50
2019-02-09T17:35:53.917Z,48.63
2019-02-09T17:38:24.951Z,41.27
2019-02-09T17:40:55.968Z,40.80
2019-02-09T17:43:26.975Z,39.17
2019-02-09T17:46:05.209Z,40.67
2019-02-09T17:48:38.249Z,39.43
2019-02-09T17:51:11.159Z,45.60
2019-02-09T17:53:42.292Z,40.40
2019-02-09T17:56:14.287Z,40.07
2019-02-09T17:58:46.290Z,41.57
2019-02-09T18:01:18.230Z,41.47
2019-02-09T18:03:49.886Z,42.37
2019-02-09T18:06:21.230Z,41.70
2019-02-09T18:08:51.892Z,40.77
2019-02-09T18:11:22.360Z,41.20
2019-02-09T18:13:54.078Z,46.70
2019-02-09T18:16:25.656Z,55.10
2019-02-09T18:18:58.365Z,50.57
2019-02-09T18:21:29.405Z,45.07
2019-02-09T18:24:00.300Z,49.53
2019-02-09T18:26:30.877Z,61.47
2019-02-09T18:29:02.393Z,45.60
2019-02-09T18:31:33.438Z,46.17
2019-02-09T18:34:04.474Z,46.00
2019-02-09T18:36:35.532Z,48.53
2019-02-09T18:39:11.592Z,43.77
2019-02-09T18:41:42.525Z,47.30
2019-02-09T18:44:14.535Z,43.93
2019-02-09T18:46:45.393Z,46.07
2019-02-09T18:49:17.669Z,63.30
2019-02-09T18:51:48.514Z,56.80
2019-02-09T18:54:21.924Z,50.00
2019-02-09T18:56:52.939Z,50.30
2019-02-09T18:59:23.490Z,51.87
2019-02-09T19:01:54.406Z,48.27
2019-02-09T19:04:25.576Z,46.93
2019-02-09T19:06:58.457Z,43.73
2019-02-09T19:09:30.651Z,42.70
2019-02-09T19:12:01.652Z,45.03
2019-02-09T19:14:32.678Z,43.43
2019-02-09T19:17:03.721Z,43.50
2019-02-09T19:19:34.575Z,44.37
2019-02-09T19:22:05.664Z,44.40
2019-02-09T19:24:36.590Z,43.83
2019-02-09T19:27:07.920Z,44.53
2019-02-09T19:29:38.471Z,44.30
2019-02-09T19:32:09.474Z,42.60
2019-02-09T19:34:39.963Z,44.60
2019-02-09T19:37:13.209Z,44.20
2019-02-09T19:39:45.715Z,46.47
2019-02-09T19:42:16.691Z,45.40
2019-02-09T19:44:47.722Z,44.43
2019-02-09T19:47:18.925Z,43.20
2019-02-09T19:49:51.797Z,50.17
2019-02-09T19:52:23.657Z,51.70
2019-02-09T19:54:54.715Z,42.80
2019-02-09T19:57:25.838Z,48.93
2019-02-09T19:59:58.723Z,57.50
2019-02-09T20:02:29.898Z,44.80
2019-02-09T20:05:00.812Z,47.10
2019-02-09T20:07:31.860Z,43.80
2019-02-09T20:10:03.022Z,46.07
2019-02-09T20:12:34.034Z,47.60
2019-02-09T20:15:05.703Z,47.77
2019-02-09T20:17:38.845Z,45.63
2019-02-09T20:20:10.637Z,48.40
2019-02-09T20:22:43.187Z,49.50
2019-02-09T20:25:16.357Z,50.10
2019-02-09T20:27:48.009Z,47.90
2019-02-09T20:30:23.681Z,47.13
2019-02-09T20:32:56.812Z,49.47
2019-02-09T20:35:29.927Z,50.57
2019-02-09T20:38:01.054Z,51.43
2019-02-09T20:40:42.842Z,52.20
2019-02-09T20:43:16.353Z,50.17
2019-02-09T20:45:49.181Z,49.70
2019-02-09T20:48:21.991Z,49.83
2019-02-09T20:50:53.684Z,49.30
2019-02-09T20:53:24.780Z,48.77
2019-02-09T20:55:55.464Z,47.63
2019-02-09T20:58:26.043Z,47.40
2019-02-09T21:00:57.126Z,48.07
2019-02-09T21:03:28.216Z,47.17
2019-02-09T21:06:00.147Z,50.07
2019-02-09T21:08:33.083Z,50.23
2019-02-09T21:11:04.124Z,48.70
2019-02-09T21:13:37.044Z,47.43
2019-02-09T21:16:08.215Z,47.20
2019-02-09T21:18:39.282Z,47.10
2019-02-09T21:21:10.102Z,48.67
2019-02-09T21:23:42.236Z,46.60
2019-02-09T21:26:15.175Z,47.70
2019-02-09T21:28:48.084Z,47.17
2019-02-09T21:31:20.203Z,46.77
2019-02-09T21:33:51.237Z,46.67
2019-02-09T21:36:24.350Z,47.40
2019-02-09T21:38:55.137Z,47.00
2019-02-09T21:41:26.492Z,50.50
2019-02-09T21:43:57.224Z,45.60
2019-02-09T21:46:28.634Z,45.40
2019-02-09T21:48:59.633Z,45.20
2019-02-09T21:51:30.280Z,44.17
2019-02-09T21:54:01.614Z,45.80
2019-02-09T21:56:32.238Z,44.37
2019-02-09T21:59:02.970Z,44.23
2019-02-09T22:01:33.390Z,46.73
2019-02-09T22:04:07.337Z,43.37
2019-02-09T22:06:38.715Z,45.17
2019-02-09T22:09:10.303Z,45.00
2019-02-09T22:11:42.470Z,45.23
2019-02-09T22:14:14.542Z,45.03
2019-02-09T22:16:45.478Z,42.87
2019-02-09T22:19:16.354Z,42.03
2019-02-09T22:21:47.668Z,44.37
2019-02-09T22:24:20.012Z,44.03
2019-02-09T22:26:52.423Z,44.30
2019-02-09T22:29:25.425Z,45.50
2019-02-09T22:31:56.554Z,46.00
2019-02-09T22:34:27.502Z,45.80
2019-02-09T22:36:58.505Z,45.60
2019-02-09T22:39:31.100Z,45.07
2019-02-09T22:42:03.813Z,45.40
2019-02-09T22:44:34.304Z,46.20
2019-02-09T22:47:05.120Z,44.93
2019-02-09T22:49:35.659Z,46.00
2019-02-09T22:52:06.596Z,45.83
2019-02-09T22:54:37.571Z,45.73
2019-02-09T22:57:08.498Z,47.10
2019-02-09T22:59:39.245Z,44.50
2019-02-09T23:02:09.809Z,46.70
2019-02-09T23:05:00.935Z,48.90
2019-02-09T23:07:35.484Z,45.27
2019-02-09T23:10:12.162Z,46.87
2019-02-09T23:12:48.382Z,46.30
2019-02-09T23:15:14.699Z,45.43
2019-02-09T23:17:45.581Z,46.43
2019-02-09T23:20:19.184Z,48.90
2019-02-09T23:22:50.599Z,47.60
2019-02-09T23:25:21.656Z,45.93
2019-02-09T23:27:52.685Z,48.53
2019-02-09T23:30:23.829Z,45.47
2019-02-09T23:32:54.815Z,50.30
2019-02-09T23:35:25.790Z,50.80
2019-02-09T23:37:56.736Z,49.00
2019-02-09T23:40:27.913Z,51.53
2019-02-09T23:42:58.780Z,48.93
2019-02-09T23:45:29.878Z,50.53
2019-02-09T23:48:00.946Z,54.50
2019-02-09T23:50:33.910Z,52.30
2019-02-09T23:53:05.769Z,52.10
2019-02-09T23:55:40.502Z,53.40
2019-02-09T23:58:12.872Z,51.77
